Time;durP1;ratioP1;P1;durP2;ratioP2;P2;SDS_P1;SDS_P2;PMS_P1;PMS_P2;Temp;Humidity;BMP_temperature;BMP_pressure;BME280_temperature;BME280_humidity;BME280_pressure;Samples;Min_cycle;Max_cycle;Signal;HPM_P1;HPM_P2
2022/09/25 00:00:47;;;;;;;11.00;8.40;;;18.30;99.90;;;;;;4591817;19;20066;-35
2022/09/25 00:02:38;;;;;;;11.52;8.27;;;18.30;99.90;;;;;;4590427;19;20078;-38
2022/09/25 00:04:10;;;;;;;11.07;8.38;;;18.30;99.90;;;;;;4591182;19;20019;-40
2022/09/25 00:05:44;;;;;;;12.07;7.68;;;18.30;99.90;;;;;;4591451;19;20018;-38
2022/09/25 00:07:15;;;;;;;12.07;8.15;;;18.30;99.90;;;;;;4592125;19;19998;-38
2022/09/25 00:08:46;;;;;;;12.85;9.13;;;18.30;99.90;;;;;;4591056;19;20489;-43
2022/09/25 00:10:18;;;;;;;12.68;8.77;;;18.30;99.90;;;;;;4591661;19;20022;-42
2022/09/25 00:11:49;;;;;;;10.90;8.95;;;18.30;99.90;;;;;;4591120;19;20015;-42
2022/09/25 00:13:20;;;;;;;11.27;8.98;;;18.30;99.90;;;;;;4591700;19;20015;-36
2022/09/25 00:14:52;;;;;;;11.95;9.20;;;18.30;99.90;;;;;;4590153;19;20007;-37
2022/09/25 00:16:25;;;;;;;9.75;7.78;;;18.30;99.90;;;;;;4591458;19;20010;-40
2022/09/25 00:17:56;;;;;;;10.70;8.32;;;18.30;99.90;;;;;;4591543;19;20015;-41
2022/09/25 00:21:17;;;;;;;9.68;7.40;;;18.30;99.90;;;;;;4590899;19;20029;-41
2022/09/25 00:22:49;;;;;;;11.02;8.45;;;18.30;99.90;;;;;;4591294;19;20022;-41
2022/09/25 00:24:21;;;;;;;12.05;8.55;;;18.30;99.90;;;;;;4591408;19;20017;-38
2022/09/25 00:25:52;;;;;;;9.35;8.15;;;18.30;99.90;;;;;;4591191;19;20031;-42
2022/09/25 00:27:23;;;;;;;11.73;8.63;;;18.30;99.90;;;;;;4590965;19;20010;-40
2022/09/25 00:28:55;;;;;;;12.05;8.63;;;18.30;99.90;;;;;;4591193;19;20011;-43
2022/09/25 00:30:26;;;;;;;10.85;8.40;;;18.30;99.90;;;;;;4590984;19;20081;-41
2022/09/25 00:31:57;;;;;;;10.02;7.88;;;18.30;99.90;;;;;;4591981;19;20013;-42
2022/09/25 00:33:28;;;;;;;10.75;7.72;;;18.30;99.90;;;;;;4591080;19;20003;-43
2022/09/25 00:35:00;;;;;;;11.77;9.23;;;18.30;99.90;;;;;;4588992;19;20051;-39
2022/09/25 00:36:31;;;;;;;11.10;7.85;;;18.30;99.90;;;;;;4590912;19;20074;-43
2022/09/25 00:38:02;;;;;;;11.25;8.48;;;18.30;99.90;;;;;;4590788;19;20011;-42
2022/09/25 00:39:33;;;;;;;13.02;9.80;;;18.30;99.90;;;;;;4590435;19;20021;-38
2022/09/25 00:41:05;;;;;;;10.77;8.57;;;18.30;99.90;;;;;;4590977;19;20018;-43
2022/09/25 00:42:36;;;;;;;11.90;9.00;;;18.30;99.90;;;;;;4591443;19;20066;-41
2022/09/25 00:44:44;;;;;;;12.10;8.38;;;18.30;99.90;;;;;;4590759;19;20010;-41
2022/09/25 00:46:28;;;;;;;11.95;9.50;;;18.30;99.90;;;;;;4590408;19;20018;-41
2022/09/25 00:48:03;;;;;;;9.77;8.45;;;18.30;99.90;;;;;;4590734;19;20028;-41
2022/09/25 00:49:34;;;;;;;12.07;9.05;;;18.30;99.90;;;;;;4589850;19;20363;-44
2022/09/25 00:51:05;;;;;;;11.10;8.95;;;18.30;99.90;;;;;;4589013;19;20011;-45
2022/09/25 00:52:37;;;;;;;10.38;8.60;;;18.30;99.90;;;;;;4588748;19;20021;-40
2022/09/25 00:54:14;;;;;;;9.27;8.20;;;18.30;99.90;;;;;;4589775;19;20082;-40
2022/09/25 00:55:45;;;;;;;11.00;8.57;;;18.30;99.90;;;;;;4589300;19;20393;-41
2022/09/25 00:57:18;;;;;;;11.30;8.68;;;18.30;99.90;;;;;;4590805;19;20030;-42
2022/09/25 00:58:50;;;;;;;10.82;8.57;;;18.30;99.90;;;;;;4590565;19;20038;-38
2022/09/25 01:00:21;;;;;;;11.55;8.55;;;18.30;99.90;;;;;;4589337;19;20080;-40
2022/09/25 01:01:52;;;;;;;10.63;8.15;;;18.30;99.90;;;;;;4589976;19;20026;-42
2022/09/25 01:03:23;;;;;;;10.98;8.50;;;18.30;99.90;;;;;;4590764;19;20451;-43
2022/09/25 01:05:02;;;;;;;13.38;9.23;;;18.30;99.90;;;;;;4590097;19;20070;-38
2022/09/25 01:06:34;;;;;;;11.07;9.65;;;18.30;99.90;;;;;;4588796;19;20027;-42
2022/09/25 01:08:06;;;;;;;10.85;8.80;;;18.30;99.90;;;;;;4589333;19;20058;-39
2022/09/25 01:09:38;;;;;;;13.85;10.23;;;18.30;99.90;;;;;;4589263;19;20011;-44
2022/09/25 01:11:09;;;;;;;11.50;9.18;;;18.20;99.90;;;;;;4589898;19;20014;-41
2022/09/25 01:12:42;;;;;;;10.68;8.65;;;18.20;99.90;;;;;;4589019;19;20007;-39
2022/09/25 01:14:16;;;;;;;11.75;8.77;;;18.30;99.90;;;;;;4588662;19;20049;-45
2022/09/25 01:15:57;;;;;;;10.88;8.00;;;18.30;99.90;;;;;;4589796;19;20011;-41
2022/09/25 01:17:34;;;;;;;12.95;8.63;;;18.20;99.90;;;;;;4588684;19;20332;-43
2022/09/25 01:19:34;;;;;;;11.82;8.73;;;18.20;99.90;;;;;;4589999;19;20024;-41
2022/09/25 01:21:26;;;;;;;11.45;8.77;;;18.20;99.90;;;;;;4589150;19;20026;-40
2022/09/25 01:23:21;;;;;;;10.98;8.98;;;18.20;99.90;;;;;;4589699;19;20018;-41
2022/09/25 01:25:24;;;;;;;11.18;8.95;;;18.20;99.90;;;;;;4588880;19;20012;-43
2022/09/25 01:27:19;;;;;;;11.07;9.15;;;18.20;99.90;;;;;;4588546;19;20349;-40
2022/09/25 01:29:00;;;;;;;11.63;9.35;;;18.20;99.90;;;;;;4590209;19;20074;-40
2022/09/25 01:30:33;;;;;;;11.70;8.60;;;18.20;99.90;;;;;;4589020;19;20027;-44
2022/09/25 01:32:10;;;;;;;11.50;8.25;;;18.20;99.90;;;;;;4588421;19;20017;-41
2022/09/25 01:33:45;;;;;;;11.10;9.30;;;18.20;99.90;;;;;;4589500;19;20014;-40
2022/09/25 01:35:25;;;;;;;10.93;9.27;;;18.20;99.90;;;;;;4587798;19;20014;-44
2022/09/25 01:37:08;;;;;;;11.55;9.35;;;18.20;99.90;;;;;;4589677;19;20017;-40
2022/09/25 01:39:01;;;;;;;10.38;8.98;;;18.20;99.90;;;;;;4588744;19;20010;-40
2022/09/25 01:41:01;;;;;;;10.35;8.73;;;18.20;99.90;;;;;;4588580;19;20029;-37
2022/09/25 01:42:44;;;;;;;10.07;8.60;;;18.20;99.90;;;;;;4588407;19;20018;-39
2022/09/25 01:44:22;;;;;;;12.70;9.30;;;18.20;99.90;;;;;;4589523;19;20011;-40
2022/09/25 01:45:57;;;;;;;11.18;9.35;;;18.20;99.90;;;;;;4588221;19;20010;-37
2022/09/25 01:47:29;;;;;;;12.57;9.52;;;18.20;99.90;;;;;;4588942;19;20039;-38
2022/09/25 01:49:05;;;;;;;12.40;9.98;;;18.20;99.90;;;;;;4590541;19;20015;-40
2022/09/25 01:50:50;;;;;;;9.68;8.35;;;18.20;99.90;;;;;;4588323;19;20014;-34
2022/09/25 01:52:28;;;;;;;11.82;10.05;;;18.20;99.90;;;;;;4588527;19;20021;-35
2022/09/25 01:54:02;;;;;;;11.95;9.43;;;18.20;99.90;;;;;;4588262;19;20375;-39
2022/09/25 01:55:37;;;;;;;10.70;8.95;;;18.20;99.90;;;;;;4589453;19;20020;-34
2022/09/25 01:57:11;;;;;;;11.07;8.85;;;18.20;99.90;;;;;;4588341;19;20128;-38
2022/09/25 01:58:47;;;;;;;11.95;9.98;;;18.20;99.90;;;;;;4588270;19;20031;-35
2022/09/25 02:00:20;;;;;;;13.65;12.25;;;18.10;99.90;;;;;;4587757;19;20500;-40
2022/09/25 02:01:51;;;;;;;13.05;11.00;;;16.50;99.90;;;;;;4588666;19;20034;-36
2022/09/25 02:03:30;;;;;;;13.00;10.32;;;15.80;99.90;;;;;;4592328;19;20353;-37
2022/09/25 02:05:07;;;;;;;14.45;9.95;;;16.20;99.90;;;;;;4592780;19;20021;-38
2022/09/25 02:06:38;;;;;;;13.45;10.50;;;16.70;99.90;;;;;;4594321;19;20010;-38
2022/09/25 02:08:19;;;;;;;12.13;9.68;;;17.10;99.90;;;;;;4593430;19;20017;-38
2022/09/25 02:09:51;;;;;;;13.20;9.77;;;17.40;99.90;;;;;;4593058;19;20011;-35
2022/09/25 02:11:24;;;;;;;12.95;10.63;;;17.60;99.90;;;;;;4593660;19;20039;-40
2022/09/25 02:12:57;;;;;;;11.65;9.80;;;17.80;99.90;;;;;;4592551;19;20361;-36
2022/09/25 02:14:37;;;;;;;11.57;10.20;;;17.90;99.90;;;;;;4592050;19;20011;-37
2022/09/25 02:16:10;;;;;;;13.40;9.70;;;18.10;99.90;;;;;;4592750;19;20022;-39
2022/09/25 02:21:43;;;;;;;12.57;9.77;;;18.30;99.90;;;;;;4593830;19;20032;-39
2022/09/25 02:23:56;;;;;;;12.05;9.40;;;18.40;99.90;;;;;;4594014;19;20007;-38
2022/09/25 02:25:36;;;;;;;;;;;18.40;99.90;;;;;;4592374;19;20051;-41
2022/09/25 02:27:07;;;;;;;12.13;9.90;;;18.50;99.90;;;;;;4591646;19;19926;-36
2022/09/25 02:28:38;;;;;;;12.45;9.27;;;18.50;99.90;;;;;;4591106;19;20018;-37
2022/09/25 02:30:10;;;;;;;11.88;9.90;;;18.50;99.90;;;;;;4591278;19;20025;-36
2022/09/25 02:31:49;;;;;;;11.43;9.23;;;18.50;99.90;;;;;;4591528;19;20017;-39
2022/09/25 02:33:20;;;;;;;11.45;9.50;;;18.40;99.90;;;;;;4591096;19;20021;-35
2022/09/25 02:34:51;;;;;;;11.55;9.88;;;18.40;99.90;;;;;;4590440;19;20015;-38
2022/09/25 02:36:22;;;;;;;13.65;9.80;;;18.40;99.90;;;;;;4591245;19;20006;-36
2022/09/25 02:37:55;;;;;;;11.88;10.07;;;18.40;99.90;;;;;;4591245;19;20066;-39
2022/09/25 02:39:28;;;;;;;10.27;9.20;;;18.40;99.90;;;;;;4590070;19;20019;-39
2022/09/25 02:41:20;;;;;;;12.70;10.23;;;18.40;99.90;;;;;;4591249;19;20086;-39
2022/09/25 02:43:00;;;;;;;11.75;9.93;;;18.40;99.90;;;;;;4591166;19;20066;-39
2022/09/25 02:45:09;;;;;;;12.07;10.15;;;18.40;99.90;;;;;;4591066;19;20006;-39
2022/09/25 02:46:52;;;;;;;13.77;10.38;;;18.40;99.90;;;;;;4590706;19;20026;-37
2022/09/25 02:48:27;;;;;;;11.00;9.80;;;18.30;99.90;;;;;;4591316;19;20031;-38
2022/09/25 02:50:37;;;;;;;12.32;10.02;;;18.30;99.90;;;;;;4591403;19;20015;-38
2022/09/25 02:52:15;;;;;;;15.10;11.07;;;18.30;99.90;;;;;;4590592;19;20081;-38
2022/09/25 02:54:05;;;;;;;13.45;10.73;;;18.30;99.90;;;;;;4590234;19;20080;-40
2022/09/25 02:55:53;;;;;;;12.27;11.02;;;17.90;99.90;;;;;;4590735;19;20007;-38
2022/09/25 02:57:41;;;;;;;14.15;12.57;;;16.10;99.90;;;;;;4590521;19;20561;-38
2022/09/25 02:59:19;;;;;;;16.70;14.03;;;15.20;99.90;;;;;;4590403;19;20014;-38
2022/09/25 03:00:51;;;;;;;15.90;13.90;;;15.00;99.90;;;;;;4590607;19;20017;-38
2022/09/25 03:02:23;;;;;;;15.13;13.10;;;14.80;99.90;;;;;;4590852;19;20505;-39
2022/09/25 03:03:55;;;;;;;15.68;13.88;;;14.70;99.90;;;;;;4590509;19;20006;-39
2022/09/25 03:05:26;;;;;;;15.43;13.57;;;14.60;99.90;;;;;;4590473;19;20157;-42
2022/09/25 03:06:57;;;;;;;14.50;12.93;;;14.60;99.90;;;;;;4590842;19;20010;-41
2022/09/25 03:08:37;;;;;;;15.15;13.18;;;14.50;99.90;;;;;;4590586;19;20026;-41
2022/09/25 03:10:08;;;;;;;15.03;13.43;;;14.40;99.90;;;;;;4590558;19;20018;-42
2022/09/25 03:11:41;;;;;;;15.20;12.38;;;14.40;99.90;;;;;;4590428;19;20013;-38
2022/09/25 03:13:25;;;;;;;15.57;13.67;;;14.40;99.90;;;;;;4590476;19;20035;-34
2022/09/25 03:14:56;;;;;;;15.90;12.97;;;14.40;99.90;;;;;;4587387;19;20018;-38
2022/09/25 03:16:33;;;;;;;17.85;14.98;;;14.30;99.90;;;;;;4590707;19;20006;-40
2022/09/25 03:18:04;;;;;;;18.13;14.60;;;14.30;99.90;;;;;;4590139;19;20006;-38
2022/09/25 03:19:35;;;;;;;14.63;11.95;;;14.30;99.90;;;;;;4590652;19;20476;-38
2022/09/25 03:21:07;;;;;;;14.55;12.15;;;14.80;99.90;;;;;;4590169;19;20101;-39
2022/09/25 03:22:38;;;;;;;15.30;11.93;;;15.40;99.90;;;;;;4590112;19;20355;-36
2022/09/25 03:24:09;;;;;;;16.15;11.73;;;15.80;99.90;;;;;;4590121;19;20049;-35
2022/09/25 03:25:40;;;;;;;14.60;11.65;;;16.10;99.90;;;;;;4590192;19;20492;-41
2022/09/25 03:27:11;;;;;;;14.63;12.68;;;16.30;99.90;;;;;;4590331;19;20011;-38
2022/09/25 03:28:42;;;;;;;14.45;12.30;;;16.50;99.90;;;;;;4590175;19;20074;-39
2022/09/25 03:30:14;;;;;;;15.43;12.93;;;16.60;99.90;;;;;;4591272;19;20472;-35
2022/09/25 03:31:45;;;;;;;13.93;10.95;;;16.80;99.90;;;;;;4592257;19;20352;-36
2022/09/25 03:33:16;;;;;;;13.98;11.55;;;16.90;99.90;;;;;;4592384;19;20022;-40
2022/09/25 03:34:47;;;;;;;14.82;11.45;;;17.00;99.90;;;;;;4589864;19;20011;-41
2022/09/25 03:36:23;;;;;;;14.25;11.73;;;17.10;99.90;;;;;;4592111;19;20464;-41
2022/09/25 03:37:54;;;;;;;14.65;12.00;;;17.10;99.90;;;;;;4590915;19;20015;-36
2022/09/25 03:39:25;;;;;;;14.52;11.77;;;17.20;99.90;;;;;;4591049;19;20027;-37
2022/09/25 03:40:57;;;;;;;13.25;11.27;;;17.20;99.90;;;;;;4591966;19;20018;-40
2022/09/25 03:42:28;;;;;;;15.30;11.25;;;17.30;99.90;;;;;;4592563;19;20015;-38
2022/09/25 03:44:00;;;;;;;14.57;10.80;;;17.40;99.90;;;;;;4592991;19;19999;-38
2022/09/25 03:45:31;;;;;;;13.48;10.63;;;17.40;99.90;;;;;;4591849;19;20014;-40
2022/09/25 03:47:02;;;;;;;13.40;10.77;;;17.40;99.90;;;;;;4592013;19;20022;-38
2022/09/25 03:48:33;;;;;;;14.15;11.90;;;17.50;99.90;;;;;;4592554;19;20374;-39
2022/09/25 03:50:07;;;;;;;14.30;11.20;;;17.50;99.90;;;;;;4592200;19;20011;-39
2022/09/25 03:51:39;;;;;;;15.02;12.35;;;17.50;99.90;;;;;;4591269;19;20033;-40
2022/09/25 03:53:11;;;;;;;12.95;10.93;;;17.50;99.90;;;;;;4590342;19;20022;-35
2022/09/25 03:54:42;;;;;;;14.15;12.30;;;17.60;99.90;;;;;;4589960;19;20029;-40
2022/09/25 03:56:16;;;;;;;13.15;11.38;;;17.60;99.90;;;;;;4591327;19;20018;-39
2022/09/25 03:57:47;;;;;;;14.45;12.10;;;17.60;99.90;;;;;;4590197;19;20007;-42
2022/09/25 03:59:19;;;;;;;13.80;11.70;;;17.70;99.90;;;;;;4590014;19;20035;-43
2022/09/25 04:00:50;;;;;;;15.82;12.63;;;17.70;99.90;;;;;;4590598;19;20041;-39
2022/09/25 04:02:22;;;;;;;14.80;12.02;;;17.70;99.90;;;;;;4592010;19;20007;-41
2022/09/25 04:03:53;;;;;;;15.07;11.85;;;17.70;99.90;;;;;;4590215;19;20472;-39
2022/09/25 04:05:24;;;;;;;14.20;12.65;;;17.70;99.90;;;;;;4591320;19;20014;-40
2022/09/25 04:06:55;;;;;;;15.02;12.38;;;17.70;99.90;;;;;;4588676;19;20010;-38
2022/09/25 04:08:26;;;;;;;14.73;12.00;;;17.80;99.90;;;;;;4590546;19;20018;-41
2022/09/25 04:10:00;;;;;;;15.73;12.05;;;17.80;99.90;;;;;;4590519;19;20015;-43
2022/09/25 04:11:32;;;;;;;14.55;12.45;;;17.70;99.90;;;;;;4590685;19;20479;-42
2022/09/25 04:13:04;;;;;;;15.13;13.05;;;17.80;99.90;;;;;;4592164;19;20010;-39
2022/09/25 04:14:35;;;;;;;16.88;14.00;;;17.80;99.90;;;;;;4590550;19;20013;-39
2022/09/25 04:16:07;;;;;;;14.50;12.70;;;17.80;99.90;;;;;;4590735;19;20010;-39
2022/09/25 04:17:38;;;;;;;;;;;17.80;99.90;;;;;;4591276;19;20437;-40
2022/09/25 04:19:09;;;;;;;17.42;14.25;;;17.80;99.90;;;;;;4590518;19;19931;-41
2022/09/25 04:20:40;;;;;;;16.35;13.88;;;17.80;99.90;;;;;;4590592;19;20037;-41
2022/09/25 04:22:12;;;;;;;16.20;13.57;;;17.80;99.90;;;;;;4590278;19;20018;-39
2022/09/25 04:24:47;;;;;;;;;;;17.80;99.90;;;;;;4591839;19;20378;-40
2022/09/25 04:25:34;;;;;;;16.08;14.00;;;17.80;99.90;;;;;;4591196;19;19918;-39
2022/09/25 04:27:05;;;;;;;15.95;14.27;;;17.80;99.90;;;;;;4590877;19;20030;-40
2022/09/25 04:28:36;;;;;;;17.73;14.73;;;17.80;99.90;;;;;;4591172;19;20010;-42
2022/09/25 04:30:09;;;;;;;;;;;17.80;99.90;;;;;;4590798;19;20487;-43
2022/09/25 04:31:40;;;;;;;15.85;14.13;;;17.80;99.90;;;;;;4590633;19;19918;-41
2022/09/25 04:35:01;;;;;;;13.43;11.63;;;17.80;99.90;;;;;;4589539;19;20018;-36
2022/09/25 04:36:33;;;;;;;16.38;12.98;;;17.80;99.90;;;;;;4589176;19;20023;-36
2022/09/25 04:38:05;;;;;;;14.82;13.15;;;17.90;99.90;;;;;;4590327;19;20003;-41
2022/09/25 04:39:36;;;;;;;16.42;14.10;;;17.80;99.90;;;;;;4589394;19;20026;-34
2022/09/25 04:41:07;;;;;;;13.68;12.30;;;17.90;99.90;;;;;;4589161;19;20018;-37
2022/09/25 04:42:40;;;;;;;13.82;12.25;;;17.80;99.90;;;;;;4589393;19;20018;-37
2022/09/25 04:44:11;;;;;;;14.70;12.70;;;17.80;99.90;;;;;;4590714;19;20002;-38
2022/09/25 04:45:43;;;;;;;15.55;12.77;;;17.80;99.90;;;;;;4590666;19;20070;-37
2022/09/25 04:47:14;;;;;;;16.60;13.82;;;17.80;99.90;;;;;;4589382;19;20359;-35
2022/09/25 04:48:45;;;;;;;17.05;13.48;;;17.80;99.90;;;;;;4588911;19;20007;-39
2022/09/25 04:50:16;;;;;;;16.70;13.93;;;17.80;99.90;;;;;;4591899;19;20516;-37
2022/09/25 04:51:47;;;;;;;17.00;15.30;;;17.90;99.90;;;;;;4588857;19;20488;-35
2022/09/25 04:53:19;;;;;;;20.67;17.45;;;16.30;99.90;;;;;;4588529;19;20035;-41
2022/09/25 04:54:54;;;;;;;18.37;15.90;;;15.20;99.90;;;;;;4588553;19;20393;-37
2022/09/25 04:56:25;;;;;;;19.75;17.05;;;14.70;99.90;;;;;;4590924;19;20030;-39
2022/09/25 04:57:57;;;;;;;;;;;14.40;99.90;;;;;;4587532;19;20078;-37
2022/09/25 04:59:28;;;;;;;19.25;16.98;;;14.30;99.90;;;;;;4588922;19;19910;-36
2022/09/25 05:01:04;;;;;;;18.02;16.13;;;14.10;99.90;;;;;;4589280;19;20484;-41
2022/09/25 05:02:35;;;;;;;19.53;16.90;;;14.10;99.90;;;;;;4588008;19;20007;-40
2022/09/25 05:04:06;;;;;;;20.23;17.52;;;14.00;99.90;;;;;;4590230;19;20014;-35
2022/09/25 05:05:39;;;;;;;20.70;18.27;;;14.00;99.90;;;;;;4589827;19;20037;-41
2022/09/25 05:07:10;;;;;;;20.33;18.17;;;13.90;99.90;;;;;;4590762;19;20018;-42
2022/09/25 05:08:41;;;;;;;20.40;18.08;;;13.90;99.90;;;;;;4589567;19;20026;-38
2022/09/25 05:10:13;;;;;;;20.65;18.38;;;13.90;99.90;;;;;;4590028;19;20074;-38
2022/09/25 05:11:45;;;;;;;19.65;17.55;;;13.80;99.90;;;;;;4590611;19;20025;-41
2022/09/25 05:13:17;;;;;;;21.43;18.97;;;13.80;99.90;;;;;;4589141;19;20015;-43
2022/09/25 05:14:48;;;;;;;20.90;18.23;;;13.80;99.90;;;;;;4589477;19;20021;-39
2022/09/25 05:16:19;;;;;;;21.25;19.00;;;13.70;99.90;;;;;;4589166;19;20015;-40
2022/09/25 05:17:58;;;;;;;20.67;18.58;;;13.70;99.90;;;;;;4589170;19;20337;-42
2022/09/25 05:19:29;;;;;;;22.30;18.30;;;13.70;99.90;;;;;;4587115;19;20039;-39
2022/09/25 05:21:03;;;;;;;21.75;17.92;;;13.70;99.90;;;;;;4588766;19;20022;-41
2022/09/25 05:22:34;;;;;;;20.13;18.03;;;13.70;99.90;;;;;;4587121;19;20015;-40
2022/09/25 05:24:07;;;;;;;18.63;16.50;;;13.70;99.90;;;;;;4591026;19;20472;-39
2022/09/25 05:25:38;;;;;;;17.90;15.80;;;13.70;99.90;;;;;;4587874;19;20018;-39
2022/09/25 05:27:11;;;;;;;18.63;15.60;;;14.20;99.90;;;;;;4588910;19;20357;-43
2022/09/25 05:28:42;;;;;;;18.77;16.20;;;14.80;99.90;;;;;;4589026;19;20345;-41
2022/09/25 05:30:13;;;;;;;19.80;14.45;;;15.30;99.90;;;;;;4589218;19;20002;-38
2022/09/25 05:31:47;;;;;;;16.67;14.82;;;15.60;99.90;;;;;;4589392;19;20505;-38
2022/09/25 05:33:18;;;;;;;19.25;16.20;;;15.80;99.90;;;;;;4587849;19;20462;-40
2022/09/25 05:34:50;;;;;;;19.65;15.57;;;16.00;99.90;;;;;;4588702;19;20026;-42
2022/09/25 05:36:21;;;;;;;21.20;16.08;;;16.20;99.90;;;;;;4587674;19;20011;-37
2022/09/25 05:37:52;;;;;;;;;;;16.30;99.90;;;;;;4590551;19;20081;-37
2022/09/25 05:39:23;;;;;;;17.45;14.15;;;16.40;99.90;;;;;;4593202;19;19922;-38
2022/09/25 05:40:55;;;;;;;19.85;16.63;;;16.50;99.90;;;;;;4593070;19;20027;-41
2022/09/25 05:42:29;;;;;;;20.23;17.30;;;16.60;99.90;;;;;;4592368;19;20361;-39
2022/09/25 05:44:05;;;;;;;19.27;17.27;;;16.70;99.90;;;;;;4592213;19;20482;-39
2022/09/25 05:45:36;;;;;;;20.70;17.05;;;16.80;99.90;;;;;;4591560;19;20021;-43
2022/09/25 05:47:08;;;;;;;19.33;16.73;;;16.80;99.90;;;;;;4590067;19;20017;-36
2022/09/25 05:48:39;;;;;;;20.52;16.27;;;16.90;99.90;;;;;;4589301;19;20018;-38
2022/09/25 05:50:14;;;;;;;19.60;16.08;;;16.90;99.90;;;;;;4589878;19;20053;-34
2022/09/25 05:51:47;;;;;;;18.45;15.90;;;17.00;99.90;;;;;;4592192;19;20022;-41
2022/09/25 05:53:18;;;;;;;18.30;16.35;;;17.10;99.90;;;;;;4589850;19;20029;-37
2022/09/25 05:54:50;;;;;;;18.50;16.40;;;17.10;99.90;;;;;;4591079;19;20049;-38
2022/09/25 05:56:24;;;;;;;18.50;15.48;;;17.20;99.90;;;;;;4590034;19;20057;-38
2022/09/25 05:58:02;;;;;;;16.95;15.23;;;17.20;99.90;;;;;;4589937;19;20018;-34
2022/09/25 05:59:34;;;;;;;18.67;16.20;;;17.30;99.90;;;;;;4589826;19;20014;-39
2022/09/25 06:01:05;;;;;;;19.63;16.80;;;17.40;99.90;;;;;;4589310;19;20102;-37
2022/09/25 06:02:37;;;;;;;19.50;17.40;;;17.40;99.90;;;;;;4587901;19;20010;-35
2022/09/25 06:04:09;;;;;;;17.38;15.68;;;17.40;99.90;;;;;;4588343;19;20011;-35
2022/09/25 06:05:40;;;;;;;16.60;14.82;;;17.50;99.90;;;;;;4592116;19;20143;-40
2022/09/25 06:07:11;;;;;;;18.75;16.35;;;17.50;99.90;;;;;;4591400;19;20476;-36
2022/09/25 06:08:42;;;;;;;17.85;15.02;;;17.50;99.90;;;;;;4591211;19;20018;-35
2022/09/25 06:10:14;;;;;;;19.05;16.10;;;17.50;99.90;;;;;;4590587;19;20049;-38
2022/09/25 06:11:46;;;;;;;;;;;17.60;99.90;;;;;;4590917;19;20365;-39
2022/09/25 06:13:17;;;;;;;18.23;15.23;;;17.60;99.90;;;;;;4589902;19;19930;-38
2022/09/25 06:14:49;;;;;;;17.67;14.68;;;17.60;99.90;;;;;;4589093;19;20023;-36
2022/09/25 06:16:20;;;;;;;18.05;15.73;;;17.60;99.90;;;;;;4590814;19;20018;-35
2022/09/25 06:17:51;;;;;;;18.60;16.60;;;17.60;99.90;;;;;;4590663;19;20014;-36
2022/09/25 06:19:22;;;;;;;18.17;15.57;;;17.70;99.90;;;;;;4592556;19;20070;-37
2022/09/25 06:21:01;;;;;;;17.58;15.68;;;17.70;99.90;;;;;;4592692;19;20102;-39
2022/09/25 06:22:32;;;;;;;19.27;16.92;;;17.70;99.90;;;;;;4592653;19;20019;-38
2022/09/25 06:24:03;;;;;;;18.60;16.40;;;17.70;99.90;;;;;;4593504;19;20018;-39
2022/09/25 06:25:37;;;;;;;18.88;15.98;;;17.70;99.90;;;;;;4593310;19;20007;-39
2022/09/25 06:27:09;;;;;;;17.98;16.02;;;17.70;99.90;;;;;;4593994;19;20022;-41
2022/09/25 06:28:40;;;;;;;18.35;15.65;;;17.70;99.90;;;;;;4593733;19;20006;-37
2022/09/25 06:30:11;;;;;;;19.67;16.08;;;17.70;99.90;;;;;;4592157;19;20017;-38
2022/09/25 06:31:42;;;;;;;19.70;17.27;;;17.80;99.90;;;;;;4591562;19;20025;-40
2022/09/25 06:33:14;;;;;;;20.25;16.95;;;17.80;99.90;;;;;;4592246;19;20014;-38
2022/09/25 06:34:45;;;;;;;19.70;16.85;;;17.80;99.90;;;;;;4591147;19;20510;-41
2022/09/25 06:36:16;;;;;;;20.48;16.83;;;17.80;99.90;;;;;;4593172;19;20011;-40
2022/09/25 06:37:48;;;;;;;20.58;16.50;;;17.80;99.90;;;;;;4593222;19;20034;-40
2022/09/25 06:39:20;;;;;;;20.90;17.27;;;17.80;99.90;;;;;;4592513;19;20018;-41
2022/09/25 06:40:51;;;;;;;18.55;16.65;;;17.80;99.90;;;;;;4592941;19;20078;-39
2022/09/25 06:42:22;;;;;;;19.95;16.98;;;17.80;99.90;;;;;;4592413;19;20464;-40
2022/09/25 06:43:53;;;;;;;19.25;16.85;;;17.80;99.90;;;;;;4592221;19;20074;-39
2022/09/25 06:45:26;;;;;;;18.27;15.75;;;17.80;99.90;;;;;;4588956;19;20014;-38
2022/09/25 06:46:58;;;;;;;19.70;17.27;;;17.80;99.90;;;;;;4590948;19;20609;-41
2022/09/25 06:48:30;;;;;;;18.98;16.58;;;17.80;99.90;;;;;;4589711;19;20101;-44
2022/09/25 06:50:01;;;;;;;;;;;17.90;99.90;;;;;;4590805;19;20015;-44
2022/09/25 06:51:33;;;;;;;20.33;16.95;;;17.90;99.90;;;;;;4593156;19;19930;-40
2022/09/25 06:53:05;;;;;;;17.77;15.70;;;17.90;99.90;;;;;;4591747;19;20022;-37
2022/09/25 06:54:36;;;;;;;20.02;17.40;;;17.90;99.90;;;;;;4591349;19;20344;-40
2022/09/25 06:56:26;;;;;;;18.92;16.27;;;17.90;99.90;;;;;;4589247;19;20368;-37
2022/09/25 06:57:57;;;;;;;17.40;15.50;;;17.90;99.90;;;;;;4592188;19;20014;-42
2022/09/25 06:59:29;;;;;;;21.80;17.80;;;17.90;99.90;;;;;;4591230;19;20015;-37
2022/09/25 07:01:00;;;;;;;19.52;16.52;;;17.90;99.90;;;;;;4590856;19;20019;-40
2022/09/25 07:04:21;;;;;;;20.95;17.38;;;18.00;99.90;;;;;;4590704;19;20018;-37
2022/09/25 07:05:52;;;;;;;18.50;16.50;;;18.00;99.90;;;;;;4590843;19;20017;-39
2022/09/25 07:07:24;;;;;;;19.90;17.70;;;18.00;99.90;;;;;;4590233;19;20019;-38
2022/09/25 07:08:55;;;;;;;19.50;17.42;;;18.00;99.90;;;;;;4589860;19;20015;-42
2022/09/25 07:10:27;;;;;;;19.13;16.50;;;18.10;99.90;;;;;;4592218;19;20014;-39
2022/09/25 07:11:58;;;;;;;17.83;15.93;;;18.10;99.90;;;;;;4592639;19;20017;-41
2022/09/25 07:13:32;;;;;;;19.38;16.80;;;18.10;99.90;;;;;;4590895;19;20357;-41
2022/09/25 07:15:05;;;;;;;19.02;16.83;;;18.10;99.90;;;;;;4591598;19;20025;-42
2022/09/25 07:16:37;;;;;;;19.60;17.20;;;18.10;99.90;;;;;;4590736;19;20014;-38
2022/09/25 07:18:09;;;;;;;19.23;16.83;;;18.10;99.90;;;;;;4590684;19;20015;-39
2022/09/25 07:19:40;;;;;;;20.08;17.92;;;18.10;99.90;;;;;;4589931;19;20003;-41
2022/09/25 07:21:18;;;;;;;19.42;16.40;;;18.10;99.90;;;;;;4589655;19;20011;-42
2022/09/25 07:22:52;;;;;;;19.92;16.55;;;18.10;99.90;;;;;;4589604;19;20468;-44
2022/09/25 07:24:25;;;;;;;18.98;14.98;;;18.10;99.90;;;;;;4589287;19;20011;-40
2022/09/25 07:26:02;;;;;;;18.90;16.90;;;18.10;99.90;;;;;;4589458;19;20031;-43
2022/09/25 07:27:33;;;;;;;18.25;16.35;;;18.10;99.90;;;;;;4592192;19;20014;-39
2022/09/25 07:29:08;;;;;;;;;;;18.10;99.90;;;;;;4592709;19;20034;-42
2022/09/25 07:30:40;;;;;;;21.27;17.77;;;18.10;99.90;;;;;;4590755;19;19918;-43
2022/09/25 07:32:11;;;;;;;19.25;16.30;;;18.10;99.90;;;;;;4590090;19;20363;-41
2022/09/25 07:33:42;;;;;;;21.35;17.02;;;18.10;99.90;;;;;;4590021;19;20034;-41
2022/09/25 07:35:13;;;;;;;;;;;18.10;99.90;;;;;;4591154;19;20014;-40
2022/09/25 07:36:46;;;;;;;29.70;21.98;;;18.20;99.90;;;;;;4590588;19;19911;-39
2022/09/25 07:38:18;;;;;;;25.70;20.83;;;18.10;99.90;;;;;;4591249;19;20011;-43
2022/09/25 07:39:50;;;;;;;23.00;19.98;;;18.20;99.90;;;;;;4589737;19;20102;-42
2022/09/25 07:41:22;;;;;;;21.70;18.05;;;18.20;99.90;;;;;;4590761;19;20018;-40
2022/09/25 07:43:00;;;;;;;18.90;16.85;;;18.20;99.90;;;;;;4589504;19;20011;-39
2022/09/25 07:44:31;;;;;;;20.33;17.73;;;18.20;99.90;;;;;;4590000;19;20041;-38
2022/09/25 07:46:04;;;;;;;19.85;17.73;;;18.20;99.90;;;;;;4590915;19;20006;-41
2022/09/25 07:47:35;;;;;;;19.80;16.98;;;18.20;99.90;;;;;;4590227;19;20019;-37
2022/09/25 07:49:07;;;;;;;19.45;17.42;;;18.20;99.90;;;;;;4591151;19;20367;-41
2022/09/25 07:50:38;;;;;;;21.30;18.50;;;18.20;99.90;;;;;;4590771;19;20014;-40
2022/09/25 07:52:09;;;;;;;21.60;17.38;;;18.20;99.90;;;;;;4591352;19;20011;-40
2022/09/25 07:53:42;;;;;;;;;;;18.20;99.90;;;;;;4592646;19;20496;-38
2022/09/25 07:55:13;;;;;;;;;;;18.20;99.90;;;;;;4589055;19;19923;-42
2022/09/25 07:56:44;;;;;;;19.63;17.52;;;18.20;99.90;;;;;;4591142;19;19918;-39
2022/09/25 07:58:18;;;;;;;20.92;17.58;;;18.20;99.90;;;;;;4589658;19;20014;-37
2022/09/25 07:59:50;;;;;;;20.75;16.77;;;18.20;99.90;;;;;;4589766;19;20018;-41
2022/09/25 08:01:22;;;;;;;19.23;16.45;;;18.20;99.90;;;;;;4586906;19;20018;-40
2022/09/25 08:02:57;;;;;;;19.83;17.10;;;18.20;99.90;;;;;;4588235;19;20010;-41
2022/09/25 08:04:28;;;;;;;18.50;16.48;;;18.20;99.90;;;;;;4591780;19;20025;-44
2022/09/25 08:06:04;;;;;;;19.42;16.63;;;18.20;99.90;;;;;;4591921;19;20037;-40
2022/09/25 08:07:35;;;;;;;20.45;16.38;;;18.20;99.90;;;;;;4591277;19;20502;-38
2022/09/25 08:09:06;;;;;;;19.45;17.38;;;18.20;99.90;;;;;;4590142;19;20018;-37
2022/09/25 08:10:38;;;;;;;18.23;16.13;;;18.20;99.90;;;;;;4590032;19;20344;-41